Weather at Leutkirch-Unterzeil Airfield

Public forecast

Using degrees Celsius for public forecast. Weather courtesy of forecast.io.

Closest aviation weather report (METAR) to Leutkirch-Unterzeil Airfield

Closest report is Memmingen Allgau Airport, 12.0 nm (22.1 km) NE.

2024/06/22 06:20 (retrieved 28 minutes ago)

EDJA 220620Z 22007KT 9999 SCT008 15/13 Q1018

Closest aviation forecast (TAF) to Leutkirch-Unterzeil Airfield

Closest forecast is Stuttgart Airport, 59.1 nm (109.4 km) NNW.

2024/06/22 06:27 (retrieved 21 minutes ago)

TAF TAF EDDS 220500Z 2206/2306 VRB03KT CAVOK BECMG 2207/2209 24007KT TEMPO 2210/2218 SHRA BKN030CB BECMG 2218/2220 VRB03KT PROB30 TEMPO 2302/2305 1200 BCFG